Time;durP1;ratioP1;P1;durP2;ratioP2;P2;SDS_P1;SDS_P2;PMS_P1;PMS_P2;Temp;Humidity;BMP_temperature;BMP_pressure;BME280_temperature;BME280_humidity;BME280_pressure;Samples;Min_cycle;Max_cycle;Signal;HPM_P1;HPM_P2
2022/03/04 00:01:27;;;;;;;20.38;9.75;;;25.70;99.90;;;;;;5067076;28;20051;-60
2022/03/04 00:03:54;;;;;;;174.50;106.97;;;25.70;99.90;;;;;;5060737;28;20162;-61
2022/03/04 00:06:21;;;;;;;70.70;45.00;;;25.80;99.90;;;;;;5055790;28;20473;-61
2022/03/04 00:08:49;;;;;;;39.30;26.23;;;25.80;99.90;;;;;;5068490;28;20490;-60
2022/03/04 00:11:16;;;;;;;51.97;35.85;;;25.80;99.90;;;;;;5075255;28;20118;-61
2022/03/04 00:13:43;;;;;;;37.70;19.05;;;25.80;99.90;;;;;;5074596;28;20135;-61
2022/03/04 00:16:09;;;;;;;34.22;17.50;;;25.80;99.90;;;;;;5075510;28;20036;-60
2022/03/04 00:18:36;;;;;;;54.55;33.08;;;25.90;99.90;;;;;;5075554;28;20035;-62
2022/03/04 00:21:03;;;;;;;35.60;20.10;;;25.90;99.90;;;;;;5075045;28;20120;-60
2022/03/04 00:23:30;;;;;;;48.58;31.02;;;26.00;99.90;;;;;;5074955;28;20025;-60
2022/03/04 00:25:57;;;;;;;37.70;21.70;;;26.00;99.90;;;;;;5075359;28;20036;-61
2022/03/04 00:28:23;;;;;;;34.88;20.27;;;26.00;99.90;;;;;;5075223;28;20025;-61
2022/03/04 00:30:50;;;;;;;33.30;20.52;;;26.00;99.90;;;;;;5075126;28;20025;-63
2022/03/04 00:33:17;;;;;;;36.72;22.58;;;26.00;99.90;;;;;;5074761;28;20094;-61
2022/03/04 00:35:43;;;;;;;42.55;24.05;;;26.10;99.90;;;;;;5075149;28;20100;-63
2022/03/04 00:38:10;;;;;;;44.83;24.80;;;26.20;99.90;;;;;;5074930;28;20025;-64
2022/03/04 00:40:37;;;;;;;44.47;30.55;;;26.20;99.90;;;;;;5074949;28;20021;-63
2022/03/04 00:43:03;;;;;;;45.17;32.33;;;26.20;99.90;;;;;;5074813;28;20028;-62
2022/03/04 00:45:30;;;;;;;47.28;32.85;;;26.20;99.90;;;;;;5074806;28;20466;-63
2022/03/04 00:47:57;;;;;;;69.40;41.80;;;26.20;99.90;;;;;;5075040;28;20473;-63
2022/03/04 00:50:23;;;;;;;51.78;33.25;;;26.20;99.90;;;;;;5074765;28;20036;-63
2022/03/04 00:52:50;;;;;;;88.30;58.22;;;26.20;99.90;;;;;;5074473;28;20044;-63
2022/03/04 00:55:17;;;;;;;86.10;56.80;;;26.20;99.90;;;;;;5074323;28;20107;-63
2022/03/04 00:57:43;;;;;;;48.75;33.47;;;26.40;99.90;;;;;;5074950;28;20051;-64
2022/03/04 01:00:11;;;;;;;41.80;25.23;;;26.50;99.90;;;;;;5074055;28;20029;-64
2022/03/04 01:02:37;;;;;;;62.80;38.95;;;26.50;99.90;;;;;;5074156;28;20392;-62
2022/03/04 01:05:04;;;;;;;57.55;37.03;;;26.50;99.90;;;;;;5072747;28;20032;-62
2022/03/04 01:07:31;;;;;;;51.30;34.95;;;26.60;99.90;;;;;;5073868;28;20033;-63
2022/03/04 01:09:58;;;;;;;55.17;37.05;;;26.70;99.90;;;;;;5073870;28;20024;-62
2022/03/04 01:12:25;;;;;;;52.90;33.42;;;26.70;99.90;;;;;;5074415;28;20403;-63
2022/03/04 01:14:53;;;;;;;48.45;32.50;;;26.80;99.90;;;;;;5074687;28;20033;-64
2022/03/04 01:17:20;;;;;;;48.92;31.40;;;26.80;99.90;;;;;;5074677;28;20024;-64
2022/03/04 01:19:46;;;;;;;52.88;32.72;;;26.80;99.90;;;;;;5074179;28;20111;-64
2022/03/04 01:22:13;;;;;;;42.53;29.60;;;26.80;99.90;;;;;;5073942;28;20043;-65
2022/03/04 01:24:40;;;;;;;33.55;24.48;;;26.80;99.90;;;;;;5073063;28;20108;-63
2022/03/04 01:27:06;;;;;;;31.45;21.75;;;26.90;99.90;;;;;;5072813;28;20029;-64
2022/03/04 01:29:33;;;;;;;30.85;20.33;;;26.90;99.90;;;;;;5073745;28;20052;-63
2022/03/04 01:32:00;;;;;;;33.22;19.00;;;26.90;99.90;;;;;;5074020;28;20033;-64
2022/03/04 01:34:27;;;;;;;23.52;13.00;;;26.90;99.90;;;;;;5074152;28;20035;-62
2022/03/04 01:36:53;;;;;;;22.77;12.95;;;26.90;99.90;;;;;;5073970;28;20029;-64
2022/03/04 01:39:20;;;;;;;68.93;47.05;;;26.90;99.90;;;;;;5073873;28;20046;-62
2022/03/04 01:41:47;;;;;;;24.55;14.30;;;26.90;99.90;;;;;;5073285;28;20024;-64
2022/03/04 01:44:13;;;;;;;20.77;13.30;;;26.90;99.90;;;;;;5073457;28;20033;-63
2022/03/04 01:46:40;;;;;;;22.85;10.90;;;27.00;99.90;;;;;;5073789;28;20104;-64
2022/03/04 01:49:07;;;;;;;15.73;10.48;;;27.00;99.90;;;;;;5073260;28;20020;-62
2022/03/04 01:51:34;;;;;;;28.92;19.40;;;27.00;99.90;;;;;;5073393;28;20028;-63
2022/03/04 01:54:00;;;;;;;13.57;9.02;;;27.10;99.90;;;;;;5073185;28;20039;-64
2022/03/04 01:56:27;;;;;;;12.88;7.60;;;27.20;99.90;;;;;;5073387;28;20036;-64
2022/03/04 01:58:54;;;;;;;10.73;5.28;;;27.20;99.90;;;;;;5072878;28;20494;-63
2022/03/04 02:01:21;;;;;;;12.07;6.78;;;27.20;99.90;;;;;;5073268;28;20039;-64
2022/03/04 02:03:48;;;;;;;12.43;6.75;;;27.30;99.90;;;;;;5073702;28;20044;-64
2022/03/04 02:06:15;;;;;;;12.35;8.30;;;27.30;99.90;;;;;;5073775;28;20028;-63
2022/03/04 02:08:41;;;;;;;16.63;9.13;;;27.30;99.90;;;;;;5073618;28;20020;-63
2022/03/04 02:11:08;;;;;;;14.95;7.22;;;27.40;99.90;;;;;;5073332;28;20113;-64
2022/03/04 02:13:37;;;;;;;30.63;20.33;;;27.50;99.90;;;;;;5069136;28;20470;-61
2022/03/04 02:16:11;;;;;;;21.63;15.32;;;27.70;99.90;;;;;;5062541;28;20028;-63
2022/03/04 02:18:37;;;;;;;10.30;7.20;;;27.80;99.90;;;;;;5053552;28;20036;-62
2022/03/04 02:21:07;;;;;;;11.82;8.27;;;27.90;99.90;;;;;;5071130;28;20056;-63
2022/03/04 02:23:34;;;;;;;9.95;6.13;;;28.00;99.90;;;;;;5073440;28;20040;-62
2022/03/04 02:26:01;;;;;;;11.43;6.50;;;28.20;99.90;;;;;;5073275;28;20032;-64
2022/03/04 02:28:27;;;;;;;13.60;8.63;;;28.20;99.90;;;;;;5073383;28;20033;-63
2022/03/04 02:30:54;;;;;;;22.08;12.68;;;28.30;99.90;;;;;;5073392;28;20028;-64
2022/03/04 02:33:21;;;;;;;14.40;9.25;;;28.30;99.90;;;;;;5073325;28;20031;-63
2022/03/04 02:35:48;;;;;;;16.92;9.80;;;28.30;99.90;;;;;;5073059;28;20021;-63
2022/03/04 02:38:15;;;;;;;18.27;10.23;;;28.40;99.90;;;;;;5075768;28;20033;-63
2022/03/04 02:40:42;;;;;;;16.88;8.45;;;28.50;99.90;;;;;;5077297;28;20029;-63
2022/03/04 02:43:08;;;;;;;14.98;8.35;;;28.60;99.90;;;;;;5077164;28;20029;-63
2022/03/04 02:45:36;;;;;;;21.42;13.90;;;28.70;99.90;;;;;;5070898;28;20050;-63
2022/03/04 02:48:03;;;;;;;21.48;15.82;;;28.70;99.90;;;;;;5076470;28;20036;-64
2022/03/04 02:50:29;;;;;;;25.85;16.55;;;28.90;99.90;;;;;;5076584;28;20029;-63
2022/03/04 02:52:56;;;;;;;61.15;45.88;;;28.90;99.90;;;;;;5076676;28;20064;-64
2022/03/04 02:55:23;;;;;;;92.63;67.07;;;28.90;99.90;;;;;;5076523;28;20423;-63
2022/03/04 02:57:50;;;;;;;150.82;106.20;;;29.10;99.90;;;;;;5076635;28;20079;-63
2022/03/04 03:00:17;;;;;;;29.80;18.23;;;29.10;99.90;;;;;;5076161;28;20406;-63
2022/03/04 03:02:44;;;;;;;29.15;17.52;;;29.30;99.90;;;;;;5076788;28;20512;-63
2022/03/04 03:05:12;;;;;;;37.92;24.17;;;29.30;99.90;;;;;;5076541;28;20047;-64
2022/03/04 03:07:40;;;;;;;38.33;23.50;;;29.30;99.90;;;;;;5076815;28;20036;-63
2022/03/04 03:10:08;;;;;;;29.20;19.38;;;29.40;99.90;;;;;;5076427;28;20154;-63
2022/03/04 03:12:34;;;;;;;24.30;17.90;;;29.40;99.90;;;;;;5074933;28;20040;-62
2022/03/04 03:15:01;;;;;;;25.85;17.40;;;29.50;99.90;;;;;;5071509;28;20016;-63
2022/03/04 03:17:28;;;;;;;24.38;15.60;;;29.50;99.90;;;;;;5064186;28;20481;-64
2022/03/04 03:19:55;;;;;;;20.02;12.88;;;29.50;99.90;;;;;;5062773;28;20087;-62
2022/03/04 03:22:21;;;;;;;18.77;13.07;;;29.50;99.90;;;;;;5076211;28;20477;-61
2022/03/04 03:24:48;;;;;;;18.40;12.13;;;29.60;99.90;;;;;;5076328;28;20068;-63
2022/03/04 03:27:16;;;;;;;22.38;14.30;;;29.80;99.90;;;;;;5075386;28;20028;-64
2022/03/04 03:29:42;;;;;;;24.38;14.70;;;29.70;99.90;;;;;;5075942;28;20064;-64
2022/03/04 03:32:13;;;;;;;19.40;13.20;;;29.80;99.90;;;;;;5075765;28;20124;-63
2022/03/04 03:34:40;;;;;;;22.48;15.50;;;29.90;99.90;;;;;;5076001;28;20033;-63
2022/03/04 03:37:09;;;;;;;22.50;15.15;;;29.90;99.90;;;;;;5071957;28;20477;-63
2022/03/04 03:39:36;;;;;;;16.20;11.35;;;30.10;99.90;;;;;;5076295;28;20032;-63
2022/03/04 03:42:05;;;;;;;14.52;10.43;;;30.10;99.90;;;;;;5076933;28;20362;-64
2022/03/04 03:44:31;;;;;;;11.48;6.97;;;30.20;99.90;;;;;;5076107;28;20031;-63
2022/03/04 03:46:58;;;;;;;10.88;6.38;;;30.20;99.90;;;;;;5075808;28;20512;-63
2022/03/04 03:49:25;;;;;;;11.02;7.45;;;30.20;99.90;;;;;;5067101;28;20028;-63
2022/03/04 03:51:52;;;;;;;10.40;6.60;;;30.30;99.90;;;;;;5055871;28;20094;-63
2022/03/04 03:54:18;;;;;;;11.95;6.30;;;30.30;99.90;;;;;;5059367;28;20032;-64
2022/03/04 03:56:45;;;;;;;9.00;6.20;;;30.30;99.90;;;;;;5075665;28;20025;-63
2022/03/04 03:59:12;;;;;;;13.75;6.60;;;30.30;99.90;;;;;;5076356;28;20484;-64
2022/03/04 04:01:39;;;;;;;7.20;4.22;;;30.40;99.90;;;;;;5075735;28;20078;-64
2022/03/04 04:04:13;;;;;;;26.67;15.63;;;30.30;99.90;;;;;;5075327;28;20035;-61
2022/03/04 04:06:41;;;;;;;22.73;13.63;;;30.30;99.90;;;;;;5075561;28;20039;-61
2022/03/04 04:09:08;;;;;;;18.80;9.55;;;30.30;99.40;;;;;;5075080;28;20033;-60
2022/03/04 04:11:36;;;;;;;15.65;8.30;;;30.40;98.30;;;;;;5075715;28;20025;-64
2022/03/04 04:14:04;;;;;;;19.77;9.40;;;30.60;98.50;;;;;;5068340;28;20443;-62
2022/03/04 04:16:31;;;;;;;19.50;8.80;;;30.70;98.70;;;;;;5060843;28;20415;-62
2022/03/04 04:18:58;;;;;;;10.20;4.90;;;30.70;99.00;;;;;;5055250;28;20028;-62
2022/03/04 04:21:26;;;;;;;9.88;6.18;;;30.60;96.70;;;;;;5054895;28;20044;-62
2022/03/04 04:23:54;;;;;;;11.75;6.95;;;30.60;98.20;;;;;;5062720;28;20413;-61
2022/03/04 04:26:22;;;;;;;15.10;9.57;;;30.60;98.00;;;;;;5060595;28;20032;-63
2022/03/04 04:28:50;;;;;;;9.07;5.53;;;30.60;98.20;;;;;;5075032;28;20074;-63
2022/03/04 04:31:18;;;;;;;13.02;5.68;;;30.60;97.90;;;;;;5075032;28;20032;-61
2022/03/04 04:33:45;;;;;;;10.10;5.28;;;30.60;96.70;;;;;;5068475;28;20028;-61
2022/03/04 04:36:12;;;;;;;6.60;4.95;;;30.60;97.90;;;;;;5069426;28;20039;-63
2022/03/04 04:38:38;;;;;;;11.02;4.53;;;30.60;97.70;;;;;;5066166;28;20104;-62
2022/03/04 04:41:06;;;;;;;10.23;4.10;;;30.60;97.30;;;;;;5068312;28;20082;-62
2022/03/04 04:43:34;;;;;;;7.97;4.57;;;30.60;97.00;;;;;;5064081;28;20025;-61
2022/03/04 04:46:02;;;;;;;7.03;4.90;;;30.60;96.70;;;;;;5063978;28;20039;-62
2022/03/04 04:48:29;;;;;;;9.25;4.63;;;30.70;96.10;;;;;;5070096;28;20305;-63
2022/03/04 04:50:57;;;;;;;6.75;3.33;;;30.70;96.30;;;;;;5065316;28;20526;-63
2022/03/04 04:53:24;;;;;;;7.70;3.53;;;30.70;96.40;;;;;;5065888;28;20036;-62
2022/03/04 04:55:50;;;;;;;4.80;2.67;;;30.70;96.20;;;;;;5065529;28;20025;-63
2022/03/04 04:58:17;;;;;;;5.80;2.63;;;30.80;95.60;;;;;;5066551;28;20497;-63
2022/03/04 05:00:45;;;;;;;8.30;2.80;;;30.80;95.20;;;;;;5065556;28;20021;-63
2022/03/04 05:03:12;;;;;;;8.07;2.92;;;30.80;95.00;;;;;;5067719;28;20380;-63
2022/03/04 05:05:40;;;;;;;3.40;2.90;;;30.80;95.20;;;;;;5070795;28;20033;-63
2022/03/04 05:08:06;;;;;;;6.60;3.47;;;30.80;95.30;;;;;;5074152;28;20028;-62
2022/03/04 05:10:33;;;;;;;7.60;3.53;;;30.80;95.70;;;;;;5073540;28;20033;-63
2022/03/04 05:13:00;;;;;;;10.48;4.15;;;30.80;95.00;;;;;;5064086;28;20033;-62
2022/03/04 05:15:27;;;;;;;8.75;4.07;;;30.80;95.00;;;;;;5066109;28;20032;-63
2022/03/04 05:17:53;;;;;;;8.00;3.88;;;30.90;96.10;;;;;;5067149;28;20115;-63
2022/03/04 05:20:20;;;;;;;6.05;3.80;;;31.00;94.90;;;;;;5066787;28;20076;-64
2022/03/04 05:22:47;;;;;;;7.82;3.53;;;31.00;94.30;;;;;;5062138;28;20104;-63
2022/03/04 05:25:13;;;;;;;8.65;4.25;;;31.00;93.50;;;;;;5063828;28;20037;-62
2022/03/04 05:27:40;;;;;;;11.48;5.13;;;31.10;94.30;;;;;;5054443;28;20529;-63
2022/03/04 05:30:08;;;;;;;7.18;3.33;;;31.10;94.20;;;;;;5059688;28;20082;-63
2022/03/04 05:32:35;;;;;;;7.30;3.90;;;31.10;93.70;;;;;;5072502;28;20115;-63
2022/03/04 05:35:02;;;;;;;7.05;3.47;;;31.20;93.90;;;;;;5070019;28;20107;-62
2022/03/04 05:37:28;;;;;;;10.43;4.38;;;31.20;94.00;;;;;;5061808;28;20025;-62
2022/03/04 05:39:55;;;;;;;4.55;3.60;;;31.20;94.10;;;;;;5059601;28;20104;-63
2022/03/04 05:42:22;;;;;;;11.52;5.00;;;31.30;93.60;;;;;;5064375;28;20074;-62
2022/03/04 05:44:48;;;;;;;8.32;5.13;;;31.30;94.40;;;;;;5067146;28;20020;-62
2022/03/04 05:47:15;;;;;;;7.00;4.10;;;31.30;94.00;;;;;;5067297;28;20028;-64
2022/03/04 05:49:42;;;;;;;8.13;6.35;;;31.40;93.30;;;;;;5067786;28;20112;-62
2022/03/04 05:52:09;;;;;;;11.38;7.63;;;31.50;94.10;;;;;;5064607;28;20032;-61
2022/03/04 05:54:36;;;;;;;9.43;6.65;;;31.60;94.20;;;;;;5058312;28;20054;-63
2022/03/04 05:57:03;;;;;;;5.85;4.10;;;31.50;94.10;;;;;;5059565;28;20060;-63
2022/03/04 05:59:30;;;;;;;7.43;4.60;;;31.60;93.60;;;;;;5073172;28;20025;-63
2022/03/04 06:01:57;;;;;;;43.60;33.08;;;31.70;93.60;;;;;;5061942;28;20033;-63
2022/03/04 06:04:23;;;;;;;8.98;5.80;;;31.70;93.80;;;;;;5061180;28;20159;-63
2022/03/04 06:06:50;;;;;;;8.25;3.88;;;31.80;92.70;;;;;;5073250;28;20062;-60
2022/03/04 06:09:17;;;;;;;14.40;11.10;;;31.70;92.40;;;;;;5073736;28;20025;-64
2022/03/04 06:11:45;;;;;;;11.57;7.53;;;31.80;93.60;;;;;;5073672;28;20036;-63
2022/03/04 06:14:11;;;;;;;18.88;15.27;;;31.90;93.80;;;;;;5077375;28;20105;-63
2022/03/04 06:16:38;;;;;;;39.67;26.27;;;32.00;94.20;;;;;;5077701;28;20029;-63
2022/03/04 06:19:05;;;;;;;13.35;7.57;;;32.10;93.60;;;;;;5077530;28;20028;-63
2022/03/04 06:21:31;;;;;;;11.75;6.70;;;32.00;92.30;;;;;;5076158;28;20047;-62
2022/03/04 06:23:58;;;;;;;35.42;30.05;;;32.00;92.80;;;;;;5077287;28;20362;-64
2022/03/04 06:26:25;;;;;;;20.35;12.65;;;32.00;92.70;;;;;;5077338;28;20040;-62
2022/03/04 06:28:52;;;;;;;34.55;27.48;;;32.00;92.90;;;;;;5075776;28;20028;-64
2022/03/04 06:31:18;;;;;;;19.55;14.43;;;32.10;93.00;;;;;;5076335;28;20056;-63
2022/03/04 06:33:46;;;;;;;15.20;8.90;;;32.20;92.40;;;;;;5077225;28;20377;-63
2022/03/04 06:36:14;;;;;;;23.65;13.43;;;32.20;92.40;;;;;;5077356;28;20067;-64
2022/03/04 06:38:44;;;;;;;20.02;9.43;;;32.20;92.30;;;;;;5077046;28;20435;-63
2022/03/04 06:41:13;;;;;;;9.98;6.43;;;32.00;92.00;;;;;;5076477;28;20070;-64
2022/03/04 06:43:41;;;;;;;10.52;6.40;;;32.00;92.20;;;;;;5077352;28;20032;-64
2022/03/04 06:46:08;;;;;;;15.90;7.13;;;32.00;92.30;;;;;;5077226;28;20024;-64
2022/03/04 06:48:35;;;;;;;14.18;6.25;;;32.10;92.10;;;;;;5077001;28;20047;-63
2022/03/04 06:51:03;;;;;;;14.55;8.25;;;32.10;92.10;;;;;;5063924;28;20103;-64
2022/03/04 06:53:30;;;;;;;12.90;8.25;;;32.20;92.60;;;;;;5065770;28;20033;-63
2022/03/04 06:55:56;;;;;;;11.98;6.90;;;32.20;92.30;;;;;;5056473;28;20021;-64
2022/03/04 06:58:23;;;;;;;12.40;6.30;;;32.20;91.70;;;;;;5058838;28;20028;-63
2022/03/04 07:00:50;;;;;;;11.07;4.38;;;32.20;92.10;;;;;;5076523;28;20036;-63
2022/03/04 07:03:17;;;;;;;8.73;4.30;;;32.20;91.60;;;;;;5075919;28;20016;-64
2022/03/04 07:05:45;;;;;;;10.00;4.55;;;32.20;92.20;;;;;;5076497;28;20029;-64
2022/03/04 07:08:13;;;;;;;9.05;5.60;;;32.30;91.80;;;;;;5076977;28;20032;-64
2022/03/04 07:10:44;;;;;;;8.30;4.65;;;32.30;91.90;;;;;;5075873;28;20033;-62
2022/03/04 07:13:11;;;;;;;13.90;7.20;;;32.30;91.20;;;;;;5065094;28;20083;-63
2022/03/04 07:15:39;;;;;;;10.10;6.25;;;32.20;91.80;;;;;;5056551;28;20108;-63
2022/03/04 07:18:06;;;;;;;9.43;6.03;;;32.20;91.50;;;;;;5068718;28;20066;-63
2022/03/04 07:20:32;;;;;;;11.00;5.72;;;32.20;91.70;;;;;;5070263;28;20477;-63
2022/03/04 07:23:00;;;;;;;11.15;5.82;;;32.20;91.30;;;;;;5056002;28;20449;-63
2022/03/04 07:25:27;;;;;;;23.23;10.52;;;32.20;91.60;;;;;;5056403;28;20036;-65
2022/03/04 07:27:54;;;;;;;15.15;8.95;;;32.20;91.60;;;;;;5055861;28;20033;-64
2022/03/04 07:30:20;;;;;;;18.13;11.13;;;32.20;91.70;;;;;;5056211;28;20082;-62
2022/03/04 07:32:49;;;;;;;10.35;8.13;;;32.20;91.70;;;;;;5056145;28;20032;-63
2022/03/04 07:35:15;;;;;;;20.42;10.10;;;32.20;91.70;;;;;;5063732;28;20036;-63
2022/03/04 07:37:43;;;;;;;17.25;9.63;;;32.10;91.90;;;;;;5058468;28;20052;-62
2022/03/04 07:40:14;;;;;;;132.35;75.50;;;32.10;92.00;;;;;;5065471;28;20037;-61
2022/03/04 07:42:42;;;;;;;36.20;24.85;;;32.20;91.90;;;;;;5056438;28;20025;-63
2022/03/04 07:45:10;;;;;;;38.50;22.73;;;32.10;91.90;;;;;;5055836;28;20029;-62
2022/03/04 07:47:38;;;;;;;49.33;34.25;;;32.20;92.30;;;;;;5056164;28;20029;-62
2022/03/04 07:50:06;;;;;;;20.27;12.52;;;32.20;91.20;;;;;;5056036;28;20405;-63
2022/03/04 07:52:33;;;;;;;13.35;7.15;;;32.20;91.40;;;;;;5061261;28;20071;-63
2022/03/04 07:55:01;;;;;;;23.10;10.65;;;32.00;91.40;;;;;;5066192;28;20095;-63
2022/03/04 07:57:28;;;;;;;14.32;8.07;;;32.00;91.50;;;;;;5065862;28;20016;-63
2022/03/04 07:59:55;;;;;;;17.10;9.13;;;32.10;91.00;;;;;;5063773;28;20048;-62
2022/03/04 08:02:22;;;;;;;20.73;12.15;;;32.10;91.20;;;;;;5065450;28;20100;-61
2022/03/04 08:04:49;;;;;;;14.77;8.45;;;32.10;91.50;;;;;;5065600;28;20048;-61
2022/03/04 08:07:17;;;;;;;13.63;7.00;;;32.20;91.30;;;;;;5064317;28;20035;-61
2022/03/04 08:09:44;;;;;;;12.65;6.22;;;32.10;91.30;;;;;;5065128;28;20075;-61
2022/03/04 08:12:11;;;;;;;11.80;6.20;;;32.20;91.10;;;;;;5066794;28;20025;-62
2022/03/04 08:14:38;;;;;;;55.05;43.05;;;32.20;90.90;;;;;;5068464;28;20507;-62
2022/03/04 08:17:05;;;;;;;19.35;10.98;;;32.20;90.90;;;;;;5063801;28;20526;-62
2022/03/04 08:19:33;;;;;;;19.38;14.48;;;32.20;90.50;;;;;;5064072;28;20035;-62
2022/03/04 08:21:59;;;;;;;13.10;8.07;;;32.20;90.90;;;;;;5060784;28;20405;-61
2022/03/04 08:24:26;;;;;;;11.48;6.85;;;32.20;91.00;;;;;;5055947;28;20463;-62
2022/03/04 08:26:53;;;;;;;10.15;6.10;;;32.20;91.00;;;;;;5074266;28;20082;-62
2022/03/04 08:29:19;;;;;;;16.15;8.35;;;32.30;91.40;;;;;;5075131;28;20028;-62
2022/03/04 08:31:46;;;;;;;10.63;5.75;;;32.20;90.70;;;;;;5073962;28;20193;-62
2022/03/04 08:34:13;;;;;;;15.05;8.23;;;32.20;90.80;;;;;;5074478;28;20492;-63
2022/03/04 08:36:39;;;;;;;9.57;5.55;;;32.20;91.20;;;;;;5074291;28;20035;-60
2022/03/04 08:39:06;;;;;;;13.60;5.90;;;32.20;90.90;;;;;;5074564;28;20116;-62
2022/03/04 08:41:34;;;;;;;11.60;5.15;;;32.20;91.00;;;;;;5074375;28;20021;-62
2022/03/04 08:44:02;;;;;;;7.18;3.40;;;32.20;91.10;;;;;;5073076;28;20028;-64
2022/03/04 08:46:29;;;;;;;7.20;4.22;;;32.20;90.80;;;;;;5074376;28;20031;-64
2022/03/04 08:48:55;;;;;;;11.20;5.65;;;32.30;90.60;;;;;;5073708;28;20028;-62
2022/03/04 08:51:25;;;;;;;11.52;5.82;;;32.20;91.50;;;;;;5074353;28;20064;-62
2022/03/04 08:53:55;;;;;;;166.30;120.88;;;32.20;91.00;;;;;;5074467;28;20025;-63
2022/03/04 08:56:22;;;;;;;12.63;7.45;;;32.30;91.50;;;;;;5074409;28;20407;-61
2022/03/04 08:58:49;;;;;;;8.77;4.60;;;32.30;90.70;;;;;;5073844;28;20030;-61
2022/03/04 09:01:16;;;;;;;9.98;4.55;;;32.30;91.10;;;;;;5072605;28;20024;-64
2022/03/04 09:03:43;;;;;;;12.90;8.38;;;32.20;91.10;;;;;;5072673;28;20043;-64
2022/03/04 09:06:09;;;;;;;6.18;4.28;;;32.30;91.30;;;;;;5074482;28;20533;-60
2022/03/04 09:08:36;;;;;;;6.72;3.63;;;32.30;90.80;;;;;;5073516;28;20487;-63
2022/03/04 09:11:03;;;;;;;7.47;3.90;;;32.30;91.00;;;;;;5073430;28;20056;-62
2022/03/04 09:13:32;;;;;;;7.68;4.97;;;32.30;90.80;;;;;;5073194;28;20028;-62
2022/03/04 09:16:00;;;;;;;12.00;5.78;;;32.30;91.30;;;;;;5073471;28;20107;-63
2022/03/04 09:18:27;;;;;;;10.93;4.90;;;32.40;91.40;;;;;;5074038;28;20021;-62
2022/03/04 09:20:55;;;;;;;9.27;6.18;;;32.40;91.50;;;;;;5072847;28;20040;-64
2022/03/04 09:23:21;;;;;;;11.20;4.13;;;32.30;90.50;;;;;;5072452;28;20035;-63
2022/03/04 09:25:49;;;;;;;5.82;3.53;;;32.30;90.90;;;;;;5073308;28;20073;-62
2022/03/04 09:28:16;;;;;;;10.45;5.20;;;32.20;91.00;;;;;;5073368;28;20036;-61
2022/03/04 09:30:43;;;;;;;9.45;5.55;;;32.20;90.90;;;;;;5073780;28;20056;-63
2022/03/04 09:33:09;;;;;;;7.60;4.72;;;32.20;91.00;;;;;;5072993;28;20044;-61
2022/03/04 09:35:36;;;;;;;5.07;4.32;;;32.10;91.90;;;;;;5073289;28;20473;-60
2022/03/04 09:38:03;;;;;;;8.65;4.45;;;32.00;91.90;;;;;;5073691;28;20028;-60
2022/03/04 09:40:30;;;;;;;16.63;6.40;;;32.00;91.70;;;;;;5066797;28;20053;-61
2022/03/04 09:42:57;;;;;;;13.90;7.97;;;32.00;91.80;;;;;;5056611;28;20025;-59
2022/03/04 09:45:25;;;;;;;28.02;13.55;;;32.00;91.90;;;;;;5062866;28;20069;-61
2022/03/04 09:47:52;;;;;;;14.95;8.00;;;32.00;92.80;;;;;;5067429;28;20021;-63
2022/03/04 09:50:20;;;;;;;30.13;17.73;;;31.80;92.20;;;;;;5057771;28;20054;-63
2022/03/04 09:52:46;;;;;;;39.15;22.10;;;31.60;92.80;;;;;;5073731;28;20538;-62
2022/03/04 09:55:14;;;;;;;20.88;13.57;;;31.50;93.20;;;;;;5073408;28;20389;-61
2022/03/04 09:57:41;;;;;;;28.52;16.10;;;31.40;93.30;;;;;;5073743;28;20031;-61
2022/03/04 10:00:11;;;;;;;19.80;12.95;;;31.30;93.40;;;;;;5073560;28;20158;-60
2022/03/04 10:02:38;;;;;;;21.20;10.25;;;31.30;93.90;;;;;;5073765;28;20376;-60
2022/03/04 10:05:05;;;;;;;17.55;11.32;;;31.30;93.50;;;;;;5073742;28;20078;-60
2022/03/04 10:07:40;;;;;;;40.10;21.05;;;31.30;93.50;;;;;;5073419;28;20024;-60
2022/03/04 10:10:18;;;;;;;18.48;11.57;;;31.30;94.00;;;;;;5073108;28;20044;-61
2022/03/04 10:12:51;;;;;;;77.43;52.67;;;31.30;93.70;;;;;;5072866;28;20029;-61
2022/03/04 10:15:18;;;;;;;143.10;105.38;;;31.30;94.20;;;;;;5064200;28;20071;-61
2022/03/04 10:18:00;;;;;;;57.25;35.75;;;31.30;94.50;;;;;;5053521;28;20073;-61
2022/03/04 10:20:37;;;;;;;41.05;29.23;;;31.30;94.10;;;;;;5057778;28;20044;-61
2022/03/04 10:23:18;;;;;;;43.80;25.40;;;31.30;94.60;;;;;;5073207;28;20060;-61
2022/03/04 10:25:49;;;;;;;77.85;39.15;;;31.20;94.90;;;;;;5073255;28;20025;-60
2022/03/04 10:28:17;;;;;;;145.27;76.13;;;31.20;94.70;;;;;;5073197;28;20028;-61
2022/03/04 10:30:46;;;;;;;85.95;48.45;;;31.20;94.80;;;;;;5068891;28;20028;-60
2022/03/04 10:33:18;;;;;;;86.93;50.80;;;31.20;94.80;;;;;;5070374;28;20036;-60
2022/03/04 10:35:46;;;;;;;78.38;43.13;;;31.10;94.20;;;;;;5063428;28;20036;-60
2022/03/04 10:38:24;;;;;;;61.15;34.17;;;31.20;94.50;;;;;;5073084;28;20020;-61
2022/03/04 10:40:52;;;;;;;60.90;33.50;;;31.10;94.30;;;;;;5073082;28;20089;-61
2022/03/04 10:43:24;;;;;;;57.30;33.38;;;31.10;94.20;;;;;;5072275;28;20675;-61
2022/03/04 10:46:01;;;;;;;;;;;31.10;94.60;;;;;;5072872;28;20041;-61
2022/03/04 10:48:28;;;;;;;325.52;256.73;;;31.10;95.10;;;;;;5072770;28;19905;-61
2022/03/04 10:50:58;;;;;;;281.50;211.63;;;31.10;94.40;;;;;;5072793;28;20036;-61
2022/03/04 10:53:28;;;;;;;105.70;70.55;;;31.10;94.90;;;;;;5059220;28;20554;-62
2022/03/04 10:56:02;;;;;;;76.57;44.22;;;31.10;94.60;;;;;;5072622;28;20029;-61
2022/03/04 10:58:35;;;;;;;67.75;34.28;;;31.00;95.00;;;;;;5074066;28;20042;-61
2022/03/04 11:01:12;;;;;;;51.03;30.88;;;31.00;95.00;;;;;;5076875;28;20055;-61
2022/03/04 11:03:41;;;;;;;86.55;55.38;;;31.00;95.10;;;;;;5076310;28;20476;-61
2022/03/04 11:06:12;;;;;;;65.05;39.03;;;31.00;95.70;;;;;;5076148;28;20029;-61
2022/03/04 11:08:40;;;;;;;78.82;44.10;;;30.90;95.80;;;;;;5076650;28;20054;-61
2022/03/04 11:11:07;;;;;;;122.20;63.72;;;30.90;95.70;;;;;;5076381;28;20120;-61
2022/03/04 11:13:34;;;;;;;115.47;58.10;;;30.90;95.10;;;;;;5076040;28;20029;-61
2022/03/04 11:16:03;;;;;;;103.22;62.67;;;30.70;95.80;;;;;;5075532;28;20059;-61
2022/03/04 11:18:29;;;;;;;83.88;49.28;;;30.60;95.90;;;;;;5076351;28;20025;-61
2022/03/04 11:20:59;;;;;;;72.82;50.45;;;30.60;96.00;;;;;;5076184;28;20036;-61
2022/03/04 11:23:30;;;;;;;45.65;29.52;;;30.60;96.00;;;;;;5076099;28;20043;-61
2022/03/04 11:26:07;;;;;;;71.70;43.25;;;30.60;96.10;;;;;;5075701;28;20032;-61
2022/03/04 11:28:42;;;;;;;50.70;31.48;;;30.50;96.00;;;;;;5074407;28;20047;-60
2022/03/04 11:31:13;;;;;;;108.78;76.85;;;30.40;95.90;;;;;;5065379;28;20108;-59
2022/03/04 11:33:46;;;;;;;99.63;68.07;;;30.30;96.20;;;;;;5073965;28;20107;-61
2022/03/04 11:36:14;;;;;;;86.10;58.40;;;30.30;96.90;;;;;;5075778;28;20036;-61
2022/03/04 11:38:49;;;;;;;55.97;34.22;;;30.40;96.70;;;;;;5054908;28;20025;-61
2022/03/04 11:41:19;;;;;;;41.72;24.02;;;30.40;97.00;;;;;;5055642;28;20107;-61
2022/03/04 11:43:47;;;;;;;48.20;27.55;;;30.30;96.50;;;;;;5073695;28;20103;-61
2022/03/04 11:46:20;;;;;;;57.40;32.78;;;30.20;97.50;;;;;;5074785;28;20381;-61
2022/03/04 11:48:48;;;;;;;69.30;41.03;;;30.30;97.80;;;;;;5075805;28;20158;-60
2022/03/04 11:51:17;;;;;;;54.85;33.35;;;30.30;97.90;;;;;;5075773;28;20032;-60
2022/03/04 11:54:04;;;;;;;55.38;34.30;;;30.30;98.10;;;;;;5065979;28;20544;-58
2022/03/04 11:56:50;;;;;;;82.80;59.35;;;30.30;98.30;;;;;;5070056;28;20503;-61
2022/03/04 11:59:21;;;;;;;98.00;71.50;;;30.30;98.40;;;;;;5061845;28;20076;-62
2022/03/04 12:01:48;;;;;;;59.88;40.78;;;30.30;98.90;;;;;;5075509;28;20082;-62
2022/03/04 12:04:18;;;;;;;54.13;35.30;;;30.30;98.90;;;;;;5075486;28;20035;-61
2022/03/04 12:07:09;;;;;;;85.43;64.72;;;30.30;98.90;;;;;;5075911;28;20423;-60
2022/03/04 12:09:38;;;;;;;74.40;54.75;;;30.20;99.20;;;;;;5074721;28;20024;-62
2022/03/04 12:12:16;;;;;;;68.30;47.70;;;30.20;99.60;;;;;;5075509;28;20059;-60
2022/03/04 12:14:45;;;;;;;56.10;36.83;;;30.10;99.90;;;;;;5074875;28;20099;-62
2022/03/04 12:17:13;;;;;;;62.97;40.95;;;30.10;99.90;;;;;;5075262;28;20428;-61
2022/03/04 12:19:39;;;;;;;60.80;37.05;;;30.10;99.90;;;;;;5075031;28;20038;-59
2022/03/04 12:22:07;;;;;;;50.53;29.73;;;30.10;99.90;;;;;;5075331;28;20028;-61
2022/03/04 12:24:35;;;;;;;44.63;28.30;;;30.10;99.90;;;;;;5072920;28;20104;-62
2022/03/04 12:27:03;;;;;;;41.53;25.50;;;30.10;99.90;;;;;;5062189;28;20032;-61
2022/03/04 12:29:42;;;;;;;43.72;25.38;;;30.10;99.90;;;;;;5072526;28;20467;-62
2022/03/04 12:32:09;;;;;;;46.17;29.33;;;30.10;99.90;;;;;;5072514;28;20085;-60
2022/03/04 12:34:38;;;;;;;53.95;33.08;;;30.10;99.90;;;;;;5070181;28;20021;-61
2022/03/04 12:37:10;;;;;;;60.55;39.67;;;30.10;99.90;;;;;;5053732;28;20028;-62